createdAt,value
2019-02-16T00:00:29.247Z,8.17
2019-02-16T00:02:59.009Z,8.03
2019-02-16T00:05:28.694Z,8.40
2019-02-16T00:07:57.701Z,8.33
2019-02-16T00:10:27.035Z,7.10
2019-02-16T00:12:56.819Z,7.50
2019-02-16T00:15:26.622Z,7.50
2019-02-16T00:17:56.002Z,6.60
2019-02-16T00:20:25.405Z,7.33
2019-02-16T00:22:54.766Z,6.33
2019-02-16T00:25:23.790Z,7.20
2019-02-16T00:27:53.073Z,6.30
2019-02-16T00:30:22.051Z,5.53
2019-02-16T00:32:51.354Z,5.90
2019-02-16T00:35:20.801Z,5.83
2019-02-16T00:37:50.539Z,6.93
2019-02-16T00:40:19.849Z,5.00
2019-02-16T00:42:49.338Z,5.30
2019-02-16T00:45:18.348Z,6.90
2019-02-16T00:47:47.399Z,6.47
2019-02-16T00:50:16.443Z,6.77
2019-02-16T00:52:45.794Z,6.80
2019-02-16T00:55:15.160Z,6.67
2019-02-16T00:57:44.197Z,6.57
2019-02-16T01:00:13.293Z,6.67
2019-02-16T01:02:42.379Z,6.60
2019-02-16T01:05:12.454Z,6.37
2019-02-16T01:07:42.089Z,7.63
2019-02-16T01:10:11.108Z,7.80
2019-02-16T01:12:40.405Z,6.40
2019-02-16T01:15:09.768Z,6.63
2019-02-16T01:17:38.968Z,6.00
2019-02-16T01:20:09.485Z,7.13
2019-02-16T01:22:38.710Z,7.80
2019-02-16T01:25:07.963Z,5.73
2019-02-16T01:27:37.300Z,6.00
2019-02-16T01:30:07.978Z,6.70
2019-02-16T01:33:01.153Z,6.47
2019-02-16T01:35:30.140Z,6.80
2019-02-16T01:37:59.145Z,7.20
2019-02-16T01:40:28.499Z,7.23
2019-02-16T01:42:57.790Z,7.30
2019-02-16T01:45:27.040Z,8.60
2019-02-16T01:47:56.289Z,8.73
2019-02-16T01:50:25.948Z,7.40
2019-02-16T01:52:55.117Z,8.60
2019-02-16T01:55:24.535Z,7.23
2019-02-16T01:57:53.793Z,7.93
2019-02-16T02:00:45.406Z,7.87
2019-02-16T02:03:14.332Z,7.83
2019-02-16T08:07:10.101Z,5.93
2019-02-16T08:09:58.215Z,6.10
2019-02-16T08:12:36.505Z,5.53
2019-02-16T08:15:12.450Z,6.27
2019-02-16T08:17:59.147Z,5.47
2019-02-16T08:20:36.085Z,8.10
2019-02-16T08:23:40.199Z,5.80
2019-02-16T08:26:23.056Z,5.47
2019-02-16T08:29:00.646Z,5.70
2019-02-16T08:31:55.388Z,5.60
2019-02-16T08:34:46.245Z,5.83
2019-02-16T08:37:28.087Z,6.90
2019-02-16T08:40:14.449Z,5.57
2019-02-16T08:42:55.117Z,8.00
2019-02-16T08:45:39.577Z,6.80
2019-02-16T08:48:33.985Z,6.20
2019-02-16T08:51:22.235Z,7.00
2019-02-16T08:54:07.299Z,5.97
2019-02-16T08:56:58.778Z,5.93
2019-02-16T08:59:41.289Z,30.10
2019-02-16T09:02:41.154Z,5.37
2019-02-16T09:05:21.453Z,4.97
2019-02-16T09:08:05.687Z,6.10
2019-02-16T09:11:03.282Z,5.00
2019-02-16T09:13:44.251Z,4.00
2019-02-16T09:16:32.681Z,4.60
2019-02-16T09:19:19.293Z,6.93
2019-02-16T09:22:22.463Z,6.07
2019-02-16T09:25:09.114Z,5.30
2019-02-16T09:27:47.641Z,4.70
2019-02-16T09:30:41.721Z,5.27
2019-02-16T09:33:30.001Z,5.20
2019-02-16T09:36:18.277Z,3.70
2019-02-16T09:39:12.896Z,4.23
2019-02-16T09:41:50.160Z,3.77
2019-02-16T09:44:28.447Z,4.07
2019-02-16T09:47:08.581Z,4.33
2019-02-16T09:49:56.534Z,3.80
2019-02-16T09:52:50.769Z,3.30
2019-02-16T09:55:32.824Z,3.60
2019-02-16T09:58:36.243Z,4.63
2019-02-16T10:01:12.635Z,2.90
2019-02-16T10:04:00.649Z,3.80
2019-02-16T10:06:48.621Z,3.27
2019-02-16T10:09:49.042Z,3.03
2019-02-16T10:12:28.570Z,2.97
2019-02-16T10:15:22.892Z,3.27
2019-02-16T10:18:09.680Z,2.50
2019-02-16T10:21:00.780Z,2.30
2019-02-16T10:23:49.251Z,2.57
2019-02-16T10:26:36.335Z,1.70
2019-02-16T10:29:30.191Z,1.47
2019-02-16T10:32:27.475Z,2.10
2019-02-16T10:35:03.868Z,2.30
2019-02-16T10:37:57.726Z,3.10
2019-02-16T10:40:52.093Z,2.73
2019-02-16T10:43:39.015Z,2.20
2019-02-16T10:46:25.691Z,2.60
2019-02-16T10:49:15.067Z,2.40
2019-02-16T10:51:54.339Z,2.77
2019-02-16T10:54:45.609Z,3.10
2019-02-16T10:57:36.590Z,2.30
2019-02-16T11:00:30.749Z,3.57
2019-02-16T11:03:21.501Z,2.90
2019-02-16T11:05:57.647Z,2.70
2019-02-16T11:08:45.928Z,2.97
2019-02-16T11:11:33.761Z,2.43
2019-02-16T11:14:22.129Z,2.97
2019-02-16T11:17:28.409Z,3.00
2019-02-16T11:20:16.241Z,2.80
2019-02-16T11:22:59.181Z,3.80
2019-02-16T11:25:47.528Z,3.37
2019-02-16T11:28:41.609Z,2.37
2019-02-16T11:31:29.936Z,4.10
2019-02-16T11:34:07.746Z,2.60
2019-02-16T11:36:57.154Z,3.23
2019-02-16T11:39:39.406Z,3.00
2019-02-16T11:42:24.437Z,3.10
2019-02-16T11:45:18.487Z,3.40
2019-02-16T11:48:19.229Z,1.60
2019-02-16T11:51:10.598Z,1.93
2019-02-16T11:53:51.641Z,1.90
2019-02-16T11:56:42.313Z,1.63
2019-02-16T11:59:25.402Z,2.70
2019-02-16T12:02:06.439Z,2.40
2019-02-16T12:04:50.467Z,2.20
2019-02-16T12:07:34.149Z,2.33
2019-02-16T12:10:12.374Z,1.77
2019-02-16T12:13:10.077Z,1.70
2019-02-16T12:15:59.948Z,1.63
2019-02-16T12:18:56.066Z,1.73
2019-02-16T12:21:42.610Z,1.87
2019-02-16T12:24:35.086Z,1.97
2019-02-16T12:27:32.336Z,2.50
2019-02-16T12:30:32.603Z,1.40
2019-02-16T12:33:23.701Z,1.50
2019-02-16T12:36:10.257Z,1.10
2019-02-16T12:39:07.085Z,2.17
2019-02-16T12:41:43.361Z,1.60
2019-02-16T12:44:34.634Z,2.10
2019-02-16T12:47:13.647Z,2.87
2019-02-16T12:49:58.935Z,2.60
2019-02-16T12:52:47.348Z,1.80
2019-02-16T12:55:50.449Z,1.50
2019-02-16T12:58:44.597Z,1.10
2019-02-16T13:01:32.827Z,1.67
2019-02-16T13:04:23.546Z,1.03
2019-02-16T13:07:05.011Z,1.10
2019-02-16T13:10:02.531Z,3.73
2019-02-16T13:12:56.873Z,0.97
2019-02-16T13:15:47.930Z,0.80
2019-02-16T13:18:26.052Z,1.10
2019-02-16T13:21:11.015Z,0.83
2019-02-16T13:23:46.042Z,1.00
2019-02-16T13:26:32.859Z,1.20
2019-02-16T13:29:19.723Z,1.13
2019-02-16T13:31:57.978Z,1.83
2019-02-16T13:34:37.061Z,1.40
2019-02-16T13:37:17.797Z,1.40
2019-02-16T13:40:12.559Z,1.30
2019-02-16T13:42:59.063Z,1.20
2019-02-16T13:45:54.602Z,1.77
2019-02-16T13:48:31.990Z,1.77
2019-02-16T13:51:15.844Z,1.57
2019-02-16T13:54:04.099Z,1.10
2019-02-16T13:56:41.167Z,2.40
2019-02-16T13:59:28.165Z,2.00
2019-02-16T14:02:16.470Z,2.07
2019-02-16T14:04:59.682Z,1.80
2019-02-16T20:10:00.653Z,9.33
2019-02-16T20:12:45.307Z,8.73
2019-02-16T20:15:46.145Z,9.30
2019-02-16T20:18:34.188Z,8.77
2019-02-16T20:21:21.396Z,9.83
2019-02-16T20:24:18.532Z,7.83
2019-02-16T20:27:22.079Z,8.80
2019-02-16T20:30:13.035Z,8.10
2019-02-16T20:33:04.370Z,7.97
2019-02-16T20:36:01.533Z,8.10
2019-02-16T20:38:55.099Z,9.30
2019-02-16T20:41:40.586Z,8.50
2019-02-16T20:44:16.119Z,9.23
2019-02-16T20:47:04.173Z,8.93
2019-02-16T20:49:59.052Z,9.90
2019-02-16T20:52:42.753Z,7.60
2019-02-16T20:55:16.714Z,7.73
2019-02-16T20:57:56.058Z,8.13
2019-02-16T21:00:53.377Z,7.40
2019-02-16T21:03:40.834Z,9.20
2019-02-16T21:06:27.415Z,7.30
2019-02-16T21:09:07.191Z,7.70
2019-02-16T21:12:01.645Z,7.73
2019-02-16T21:14:49.999Z,7.43
2019-02-16T21:17:44.439Z,6.80
2019-02-16T21:20:48.750Z,7.33
2019-02-16T21:23:55.763Z,8.23
2019-02-16T21:26:42.605Z,9.13
2019-02-16T21:29:17.203Z,9.60
2019-02-16T21:32:05.343Z,9.20
2019-02-16T21:34:52.410Z,8.70
2019-02-16T21:37:40.569Z,7.67
2019-02-16T21:40:18.965Z,8.10
2019-02-16T21:43:09.773Z,6.80
2019-02-16T21:45:57.773Z,5.73
2019-02-16T21:48:35.644Z,5.77
2019-02-16T21:51:35.551Z,6.70
2019-02-16T21:54:19.505Z,5.77
2019-02-16T21:57:06.241Z,5.63
2019-02-16T21:59:53.162Z,4.90
2019-02-16T22:02:44.547Z,4.80
2019-02-16T22:05:51.321Z,5.03
2019-02-16T22:08:28.213Z,5.17
2019-02-16T22:11:22.050Z,4.40
2019-02-16T22:13:51.122Z,5.30
2019-02-16T22:16:20.518Z,4.30
2019-02-16T22:18:50.464Z,4.73
2019-02-16T22:21:19.544Z,4.30
2019-02-16T22:23:49.202Z,4.57
2019-02-16T22:26:18.736Z,5.17
2019-02-16T22:28:47.811Z,4.83
2019-02-16T22:31:17.841Z,3.70
2019-02-16T22:33:47.356Z,4.23
2019-02-16T22:36:16.286Z,4.70
2019-02-16T22:38:45.346Z,4.47
2019-02-16T22:41:14.821Z,4.80
2019-02-16T22:43:43.857Z,3.90
2019-02-16T22:46:13.354Z,3.10
2019-02-16T22:48:42.733Z,4.10
2019-02-16T22:51:11.846Z,4.43
2019-02-16T22:53:41.397Z,3.80
2019-02-16T22:56:10.428Z,3.20
2019-02-16T22:58:39.741Z,3.60
2019-02-16T23:01:09.493Z,3.93
2019-02-16T23:03:39.061Z,4.23
2019-02-16T23:06:08.074Z,4.03
2019-02-16T23:08:37.477Z,4.50
2019-02-16T23:11:07.100Z,3.80
2019-02-16T23:13:36.565Z,4.37
2019-02-16T23:16:05.897Z,5.00
2019-02-16T23:18:34.850Z,5.13
2019-02-16T23:21:04.324Z,5.63
2019-02-16T23:23:33.253Z,3.60
2019-02-16T23:26:02.601Z,4.40
2019-02-16T23:28:38.665Z,4.50
2019-02-16T23:31:02.627Z,5.07
2019-02-16T23:33:31.639Z,5.50
2019-02-16T23:36:01.020Z,4.53
2019-02-16T23:38:30.044Z,5.70
2019-02-16T23:40:58.957Z,7.27
2019-02-16T23:43:27.951Z,5.77
2019-02-16T23:45:56.946Z,5.97
2019-02-16T23:48:26.783Z,6.80
2019-02-16T23:50:56.238Z,5.70
2019-02-16T23:53:25.599Z,5.60
2019-02-16T23:55:54.949Z,5.80
2019-02-16T23:58:24.450Z,5.57
